Time;durP1;ratioP1;P1;durP2;ratioP2;P2;SDS_P1;SDS_P2;PMS_P1;PMS_P2;Temp;Humidity;BMP_temperature;BMP_pressure;BME280_temperature;BME280_humidity;BME280_pressure;Samples;Min_cycle;Max_cycle;Signal;HPM_P1;HPM_P2
2022/06/13 00:01:23;;;;;;;2.70;2.30;;;;;;;19.41;100.00;100509.47;5007268;28;20232;-77
2022/06/13 00:03:49;;;;;;;3.13;2.37;;;;;;;19.36;100.00;100514.94;5024955;28;20531;-76
2022/06/13 00:06:15;;;;;;;4.47;2.80;;;;;;;19.33;100.00;100504.56;4999737;28;20199;-77
2022/06/13 00:08:41;;;;;;;4.53;2.67;;;;;;;19.28;100.00;100490.78;4998797;28;20193;-76
2022/06/13 00:11:11;;;;;;;2.50;2.30;;;;;;;19.24;100.00;100483.97;5005330;28;21258;-76
2022/06/13 00:13:37;;;;;;;4.13;2.70;;;;;;;19.16;100.00;100500.88;5008066;28;20209;-76
2022/06/13 00:16:03;;;;;;;4.00;2.70;;;;;;;19.11;100.00;100494.09;4999349;28;20218;-76
2022/06/13 00:18:29;;;;;;;4.37;3.07;;;;;;;19.04;100.00;100483.88;5027056;28;20758;-77
2022/06/13 00:20:55;;;;;;;3.27;2.83;;;;;;;18.98;100.00;100478.03;5008738;28;20948;-76
2022/06/13 00:23:21;;;;;;;3.13;2.60;;;;;;;18.93;100.00;100472.94;5005018;28;20554;-77
2022/06/13 00:25:46;;;;;;;3.10;2.50;;;;;;;18.93;100.00;100480.78;5006272;28;20182;-77
2022/06/13 00:28:11;;;;;;;2.37;2.03;;;;;;;18.94;100.00;100481.66;5001131;28;20193;-76
2022/06/13 00:30:37;;;;;;;2.53;2.30;;;;;;;18.93;100.00;100493.06;5006198;28;20207;-79
2022/06/13 00:33:02;;;;;;;2.60;2.20;;;;;;;18.91;100.00;100492.28;5014559;28;20787;-78
2022/06/13 00:35:28;;;;;;;4.50;2.63;;;;;;;18.89;100.00;100494.97;5006416;28;20195;-77
2022/06/13 00:37:53;;;;;;;3.00;2.60;;;;;;;18.89;100.00;100503.66;5025037;28;20184;-75
2022/06/13 00:40:20;;;;;;;3.83;2.53;;;;;;;18.89;100.00;100500.22;5023365;28;20195;-76
2022/06/13 00:42:46;;;;;;;2.67;2.47;;;;;;;18.89;100.00;100508.06;5013298;28;20576;-76
2022/06/13 00:45:20;;;;;;;4.20;2.20;;;;;;;18.91;100.00;100508.84;5007480;28;20191;-77
2022/06/13 00:47:49;;;;;;;3.40;2.60;;;;;;;18.94;100.00;100513.13;5003292;28;20189;-76
2022/06/13 00:50:22;;;;;;;3.87;2.77;;;;;;;18.96;100.00;100506.09;5007358;28;20228;-76
2022/06/13 00:52:48;;;;;;;2.73;2.53;;;;;;;18.96;100.00;100511.34;5007437;28;20218;-77
2022/06/13 00:55:18;;;;;;;2.47;2.27;;;;;;;18.98;100.00;100514.75;5008471;28;20657;-77
2022/06/13 00:57:43;;;;;;;2.63;2.33;;;;;;;19.01;100.00;100510.22;5007747;28;20186;-77
2022/06/13 01:00:13;;;;;;;2.70;2.50;;;;;;;19.06;100.00;100509.19;5003126;28;20193;-77
2022/06/13 01:02:42;;;;;;;3.17;2.43;;;;;;;19.08;100.00;100508.22;5021290;28;20210;-77
2022/06/13 01:05:09;;;;;;;2.30;2.10;;;;;;;19.11;100.00;100508.09;5011923;28;20176;-77
2022/06/13 01:07:36;;;;;;;3.03;2.80;;;;;;;19.15;100.00;100501.78;5007417;28;20199;-76
2022/06/13 01:12:50;;;;;;;4.00;2.83;;;;;;;19.12;100.00;100493.19;5015602;28;20305;-76
2022/06/13 01:15:36;;;;;;;3.50;2.70;;;;;;;19.03;100.00;100491.78;5008702;28;20193;-77
2022/06/13 01:18:17;;;;;;;2.77;2.57;;;;;;;18.93;100.00;100504.41;5019783;28;20203;-77
2022/06/13 01:20:54;;;;;;;2.60;2.40;;;;;;;18.89;100.00;100502.84;5004046;28;20184;-76
2022/06/13 01:23:40;;;;;;;2.53;2.33;;;;;;;18.91;100.00;100505.38;5005962;28;20192;-76
2022/06/13 01:26:38;;;;;;;2.70;2.50;;;;;;;18.92;100.00;100505.31;4997235;28;20201;-77
2022/06/13 01:29:27;;;;;;;2.83;2.53;;;;;;;18.94;100.00;100508.75;4978670;28;20229;-77
2022/06/13 01:32:34;;;;;;;2.83;2.53;;;;;;;18.94;100.00;100498.25;5008447;28;20260;-79
2022/06/13 01:35:08;;;;;;;2.57;2.37;;;;;;;18.97;100.00;100510.41;4942373;29;20230;-78
2022/06/13 01:37:53;;;;;;;3.57;2.73;;;;;;;18.97;100.00;100508.63;5000450;28;20194;-77
2022/06/13 01:40:44;;;;;;;3.83;2.80;;;;;;;18.97;100.00;100518.28;5005270;28;21055;-77
2022/06/13 01:43:32;;;;;;;2.60;2.40;;;;;;;18.95;100.00;100525.38;5011429;28;20195;-77
2022/06/13 01:46:13;;;;;;;2.77;2.57;;;;;;;18.94;100.00;100516.63;5014359;28;20194;-79
2022/06/13 01:48:41;;;;;;;2.70;2.50;;;;;;;18.96;100.00;100516.59;5006189;28;20642;-77
2022/06/13 01:51:16;;;;;;;3.03;2.33;;;;;;;18.98;100.00;100512.97;5019713;28;20704;-76
2022/06/13 01:53:58;;;;;;;2.97;2.70;;;;;;;18.96;100.00;100509.56;5007727;28;20201;-77
2022/06/13 01:56:39;;;;;;;3.40;3.10;;;;;;;18.91;100.00;100503.59;5003827;28;20280;-77
2022/06/13 01:59:40;;;;;;;3.00;2.70;;;;;;;18.82;100.00;100514.47;5014794;28;20188;-79
2022/06/13 02:02:08;;;;;;;2.67;2.43;;;;;;;18.73;100.00;100513.94;5022670;28;20216;-76
2022/06/13 02:04:39;;;;;;;2.70;2.50;;;;;;;18.69;100.00;100503.59;5028316;28;20653;-76
2022/06/13 02:07:13;;;;;;;3.10;2.70;;;;;;;18.62;100.00;100497.75;5024919;28;20189;-77
2022/06/13 02:09:50;;;;;;;2.93;2.73;;;;;;;18.56;100.00;100496.22;5011901;28;20188;-75
2022/06/13 02:12:17;;;;;;;3.13;2.83;;;;;;;18.51;100.00;100492.06;5004575;28;20215;-76
2022/06/13 02:14:52;;;;;;;3.47;3.17;;;;;;;18.43;100.00;100495.00;5017867;28;20217;-77
2022/06/13 02:17:21;;;;;;;4.13;3.40;;;;;;;18.36;100.00;100506.63;5003880;28;22128;-77
2022/06/13 02:19:55;;;;;;;3.80;3.37;;;;;;;18.25;100.00;100514.91;5006229;28;20668;-77
2022/06/13 02:22:26;;;;;;;3.67;3.27;;;;;;;18.16;100.00;100520.47;5008549;28;20247;-75
2022/06/13 02:25:06;;;;;;;4.03;3.63;;;;;;;18.11;100.00;100525.88;5022663;28;20199;-78
2022/06/13 02:27:35;;;;;;;3.47;3.17;;;;;;;18.06;100.00;100528.66;5003989;28;20269;-76
2022/06/13 02:30:12;;;;;;;3.47;3.17;;;;;;;18.04;100.00;100530.47;5003069;28;20182;-76
2022/06/13 02:32:48;;;;;;;3.57;3.27;;;;;;;18.00;100.00;100518.41;5021001;28;20204;-75
2022/06/13 02:35:18;;;;;;;3.50;3.20;;;;;;;17.96;100.00;100527.25;5006316;28;20549;-76
2022/06/13 02:37:57;;;;;;;4.07;3.20;;;;;;;17.93;100.00;100532.59;5019261;28;20198;-76
2022/06/13 02:40:32;;;;;;;3.07;2.87;;;;;;;17.86;100.00;100528.47;5026775;28;20950;-76
2022/06/13 02:43:23;;;;;;;4.47;3.40;;;;;;;17.79;100.00;100528.72;5005689;28;20210;-78
2022/06/13 02:46:00;;;;;;;3.40;3.10;;;;;;;17.75;100.00;100528.88;5016096;28;20189;-77
2022/06/13 02:48:29;;;;;;;2.90;2.70;;;;;;;17.71;100.00;100535.97;5021195;28;20977;-77
2022/06/13 02:51:29;;;;;;;2.97;2.77;;;;;;;17.67;100.00;100532.59;5006275;28;20203;-77
2022/06/13 02:53:58;;;;;;;3.10;2.80;;;;;;;17.64;100.00;100531.88;5022268;28;20216;-76
2022/06/13 02:57:23;;;;;;;3.00;2.67;;;;;;;17.61;100.00;100537.19;5007730;28;20304;-76
2022/06/13 02:59:43;;;;;;;3.17;2.83;;;;;;;17.56;100.00;100532.13;5007452;28;20778;-76
2022/06/13 03:02:13;;;;;;;3.60;3.30;;;;;;;17.51;100.00;100531.44;5020682;28;20295;-76
2022/06/13 03:04:46;;;;;;;3.50;3.20;;;;;;;17.48;100.00;100539.38;5018126;28;20180;-76
2022/06/13 03:07:20;;;;;;;3.20;2.90;;;;;;;17.48;100.00;100528.91;5024112;28;20192;-74
2022/06/13 03:10:01;;;;;;;3.37;3.13;;;;;;;17.49;100.00;100533.22;5009355;28;20218;-78
2022/06/13 03:12:45;;;;;;;3.43;3.13;;;;;;;17.50;100.00;100532.31;5008140;28;20254;-76
2022/06/13 03:15:22;;;;;;;2.63;2.43;;;;;;;17.49;100.00;100541.09;5028508;28;20238;-78
2022/06/13 03:18:04;;;;;;;3.63;3.33;;;;;;;17.43;100.00;100542.16;5010154;28;20199;-77
2022/06/13 03:20:40;;;;;;;3.23;2.63;;;;;;;17.37;100.00;100537.97;5019888;28;20955;-76
2022/06/13 03:23:08;;;;;;;3.27;3.00;;;;;;;17.34;100.00;100547.69;5015137;28;20191;-75
2022/06/13 03:25:45;;;;;;;3.03;2.83;;;;;;;17.30;100.00;100536.50;5008790;28;20261;-77
2022/06/13 03:28:16;;;;;;;2.80;2.60;;;;;;;17.26;100.00;100539.22;5023007;28;20191;-76
2022/06/13 03:30:49;;;;;;;2.83;2.63;;;;;;;17.21;100.00;100547.22;5016737;28;20188;-76
2022/06/13 03:36:11;;;;;;;2.90;2.70;;;;;;;17.18;100.00;100542.09;5007511;28;20270;-77
2022/06/13 03:38:46;;;;;;;3.17;2.53;;;;;;;17.15;100.00;100540.44;5022749;28;20223;-76
2022/06/13 03:41:16;;;;;;;3.17;2.87;;;;;;;17.18;100.00;100539.47;5014405;28;20297;-75
2022/06/13 03:43:48;;;;;;;2.87;2.67;;;;;;;17.20;100.00;100542.91;5006771;28;20239;-76
2022/06/13 03:46:21;;;;;;;3.23;2.97;;;;;;;17.22;100.00;100546.34;5001629;28;20188;-78
2022/06/13 03:48:54;;;;;;;3.10;2.80;;;;;;;17.29;100.00;100544.38;5003860;28;20259;-76
2022/06/13 03:51:25;;;;;;;3.03;2.83;;;;;;;17.34;100.00;100547.69;5011423;28;20699;-76
2022/06/13 03:54:16;;;;;;;3.03;2.83;;;;;;;17.56;100.00;100566.16;5010213;28;20209;-77
2022/06/13 03:57:02;;;;;;;3.70;3.10;;;;;;;18.16;100.00;100565.84;5008860;28;20204;-77
2022/06/13 03:59:46;;;;;;;3.17;2.50;;;;;;;18.91;100.00;100574.41;4991782;28;20192;-76
2022/06/13 04:02:14;;;;;;;3.40;3.07;;;;;;;19.47;100.00;100575.69;5030214;28;20294;-76
2022/06/13 04:04:48;;;;;;;3.10;2.90;;;;;;;19.66;100.00;100577.53;5004207;28;20647;-75
2022/06/13 04:07:15;;;;;;;3.17;2.63;;;;;;;19.47;100.00;100594.06;5008033;28;20200;-76
2022/06/13 04:10:12;;;;;;;2.63;2.30;;;;;;;19.17;100.00;100598.78;5023364;28;20760;-77
2022/06/13 04:12:49;;;;;;;3.70;2.73;;;;;;;18.92;100.00;100596.25;5006616;28;20594;-77
2022/06/13 04:15:36;;;;;;;3.97;2.40;;;;;;;18.76;100.00;100596.84;5001755;28;20274;-77
2022/06/13 04:18:20;;;;;;;3.33;2.70;;;;;;;18.70;100.00;100595.31;5008887;28;20184;-77
2022/06/13 04:21:04;;;;;;;2.87;2.60;;;;;;;19.07;100.00;100593.06;5009684;28;20188;-76
2022/06/13 04:23:46;;;;;;;3.00;2.70;;;;;;;19.47;100.00;100593.22;5003401;28;20189;-77
2022/06/13 04:26:32;;;;;;;3.03;2.70;;;;;;;19.56;100.00;100602.47;5007996;28;20199;-76
2022/06/13 04:29:09;;;;;;;3.90;2.60;;;;;;;19.61;100.00;100603.13;4997005;28;20185;-76
2022/06/13 04:31:35;;;;;;;2.93;2.73;;;;;;;19.52;100.00;100595.66;5007038;28;20208;-76
2022/06/13 04:34:04;;;;;;;2.70;2.50;;;;;;;19.44;100.00;100601.22;5006207;28;20389;-75
2022/06/13 04:36:31;;;;;;;2.97;2.70;;;;;;;19.33;100.00;100610.38;5006746;28;20274;-76
2022/06/13 04:39:01;;;;;;;3.70;3.10;;;;;;;19.25;100.00;100617.69;5013259;28;20198;-75
2022/06/13 04:41:33;;;;;;;3.10;2.80;;;;;;;19.17;100.00;100614.53;5009254;28;20197;-77
2022/06/13 04:44:03;;;;;;;3.47;3.00;;;;;;;19.12;100.00;100617.34;5006330;28;20264;-78
2022/06/13 04:46:30;;;;;;;5.73;3.20;;;;;;;19.21;100.00;100625.75;5007603;28;20190;-77
2022/06/13 04:48:59;;;;;;;3.10;2.80;;;;;;;20.34;100.00;100623.69;5002356;28;20187;-76
2022/06/13 04:51:30;;;;;;;3.53;2.10;;;;;;;21.76;100.00;100618.81;5011647;28;20201;-76
2022/06/13 04:54:12;;;;;;;2.30;2.10;;;;;;;22.75;100.00;100626.00;5011277;28;20297;-75
2022/06/13 04:56:38;;;;;;;3.33;2.00;;;;;;;23.70;100.00;100627.72;5029050;28;20216;-76
2022/06/13 04:59:04;;;;;;;1.90;1.80;;;;;;;24.87;97.68;100632.16;5006844;28;20223;-78
2022/06/13 05:01:35;;;;;;;2.83;2.00;;;;;;;25.92;93.98;100634.22;5026015;28;20204;-77
2022/06/13 05:04:04;;;;;;;2.40;1.80;;;;;;;26.78;91.57;100635.28;5005021;28;20188;-77
2022/06/13 05:06:30;;;;;;;2.27;2.00;;;;;;;27.56;89.00;100640.34;5015710;28;20622;-77
2022/06/13 05:09:20;;;;;;;2.73;1.90;;;;;;;28.21;86.13;100644.25;5001802;28;20217;-77
2022/06/13 05:12:06;;;;;;;3.20;1.97;;;;;;;28.72;83.45;100652.72;5003632;28;20201;-77
2022/06/13 05:14:40;;;;;;;5.70;2.20;;;;;;;29.03;80.27;100661.78;5011115;28;20207;-77
2022/06/13 05:17:08;;;;;;;4.50;2.50;;;;;;;29.41;79.04;100661.44;5021054;28;20772;-78
2022/06/13 05:19:39;;;;;;;5.87;2.13;;;;;;;29.49;72.81;100657.16;5002851;28;20201;-77
2022/06/13 05:22:43;;;;;;;3.97;2.20;;;;;;;29.75;71.56;100655.94;5017105;28;20738;-77
2022/06/13 05:25:27;;;;;;;2.57;1.90;;;;;;;30.27;70.69;100654.16;4998713;28;20175;-77
2022/06/13 05:27:53;;;;;;;3.57;2.30;;;;;;;30.65;70.16;100646.47;5002308;28;20188;-76
2022/06/13 05:30:21;;;;;;;4.07;2.43;;;;;;;30.73;69.06;100648.44;5005401;28;20566;-76
2022/06/13 05:32:47;;;;;;;4.37;2.43;;;;;;;30.73;65.54;100658.31;5006486;28;20207;-76
2022/06/13 05:35:17;;;;;;;3.37;2.03;;;;;;;30.75;63.41;100659.84;5009186;28;20941;-77
2022/06/13 05:37:43;;;;;;;3.27;2.00;;;;;;;31.23;63.61;100674.31;5019695;28;20272;-76
2022/06/13 05:40:14;;;;;;;2.83;1.70;;;;;;;32.00;61.07;100677.09;5017377;28;20208;-76
2022/06/13 05:42:39;;;;;;;3.00;1.83;;;;;;;32.01;59.99;100683.28;5004540;28;20234;-77
2022/06/13 05:45:05;;;;;;;1.73;1.50;;;;;;;31.68;59.56;100678.25;5012861;28;20864;-75
2022/06/13 05:47:30;;;;;;;2.40;1.83;;;;;;;31.25;60.10;100688.38;5004662;28;20284;-75
2022/06/13 05:49:56;;;;;;;3.47;1.97;;;;;;;31.19;60.13;100688.09;5016975;28;20191;-75
2022/06/13 05:52:22;;;;;;;4.30;2.17;;;;;;;31.19;58.97;100686.28;5019676;28;20216;-77
2022/06/13 05:54:47;;;;;;;2.27;1.90;;;;;;;31.60;58.10;100692.34;5002428;28;20236;-75
2022/06/13 05:57:13;;;;;;;4.33;2.27;;;;;;;31.67;57.49;100697.13;5001159;28;20240;-76
2022/06/13 05:59:38;;;;;;;5.20;2.50;;;;;;;31.10;56.63;100695.94;5023792;28;20180;-74
2022/06/13 06:02:03;;;;;;;5.60;2.53;;;;;;;30.62;56.92;100691.28;5008748;28;20219;-75
2022/06/13 06:04:29;;;;;;;3.80;2.43;;;;;;;30.20;56.22;100694.84;5006806;28;20207;-76
2022/06/13 06:06:54;;;;;;;4.63;2.17;;;;;;;29.00;57.58;100693.13;5005423;28;20662;-76
2022/06/13 06:09:20;;;;;;;3.83;2.30;;;;;;;29.12;58.89;100692.13;5004455;28;20189;-76
2022/06/13 06:11:45;;;;;;;5.43;2.30;;;;;;;29.75;58.51;100701.28;5016949;28;20617;-76
2022/06/13 06:14:11;;;;;;;3.67;2.03;;;;;;;29.95;58.01;100711.13;5004493;28;20234;-76
2022/06/13 06:16:36;;;;;;;3.97;2.00;;;;;;;29.66;57.68;100710.91;5002862;28;20246;-75
2022/06/13 06:19:02;;;;;;;3.70;2.17;;;;;;;28.50;58.96;100706.81;5005271;28;20195;-76
2022/06/13 06:21:27;;;;;;;3.83;2.30;;;;;;;27.59;59.82;100710.09;5005460;28;20367;-77
2022/06/13 06:23:53;;;;;;;4.93;2.10;;;;;;;26.82;61.45;100713.81;5020707;28;20718;-75
2022/06/13 06:26:26;;;;;;;5.00;2.63;;;;;;;26.01;63.01;100719.28;5005997;28;20188;-76
2022/06/13 06:28:51;;;;;;;3.73;2.07;;;;;;;25.47;64.87;100719.31;5008578;28;20188;-76
2022/06/13 06:31:18;;;;;;;3.67;2.13;;;;;;;25.37;65.46;100725.19;5002087;28;20250;-76
2022/06/13 06:33:44;;;;;;;3.70;2.30;;;;;;;25.82;64.76;100726.75;5023120;28;21030;-75
2022/06/13 06:36:12;;;;;;;3.37;1.90;;;;;;;26.50;62.88;100722.19;5024297;28;20204;-75
2022/06/13 06:38:38;;;;;;;3.20;2.27;;;;;;;27.16;61.88;100723.81;5006271;28;20283;-76
2022/06/13 06:41:04;;;;;;;2.63;2.00;;;;;;;27.58;61.12;100729.66;5008367;28;20648;-76
2022/06/13 06:43:29;;;;;;;3.13;2.00;;;;;;;27.58;60.08;100726.13;5006987;28;20229;-76
2022/06/13 06:45:55;;;;;;;3.97;2.30;;;;;;;27.71;59.71;100729.56;5002897;28;20753;-76
2022/06/13 06:48:23;;;;;;;2.63;1.90;;;;;;;27.80;60.04;100728.03;5006922;28;20188;-75
2022/06/13 06:50:49;;;;;;;6.83;2.47;;;;;;;28.21;58.95;100734.72;5008401;28;20551;-76
2022/06/13 06:53:17;;;;;;;5.07;2.43;;;;;;;28.94;58.36;100730.94;5007602;28;20228;-76
2022/06/13 07:01:15;;;;;;;3.23;1.97;;;;;;;30.81;55.20;100727.91;5000693;28;20220;-77
2022/06/13 07:03:41;;;;;;;4.17;2.60;;;;;;;31.02;54.71;100727.84;5003329;28;20200;-76
2022/06/13 07:06:08;;;;;;;6.97;2.40;;;;;;;31.11;53.97;100723.50;5000504;28;20279;-76
2022/06/13 07:08:36;;;;;;;3.43;2.00;;;;;;;31.27;53.77;100726.50;5009252;28;20184;-76
2022/06/13 07:13:48;;;;;;;3.20;1.83;;;;;;;31.84;53.31;100727.69;5008094;28;20303;-75
2022/06/13 07:16:13;;;;;;;3.47;1.63;;;;;;;31.90;53.82;100729.81;5006547;28;20320;-75
2022/06/13 07:18:41;;;;;;;3.40;2.13;;;;;;;32.01;53.91;100732.31;5002774;28;20629;-76
2022/06/13 07:21:07;;;;;;;4.17;2.23;;;;;;;32.18;53.45;100733.41;5016112;28;20226;-75
2022/06/13 07:23:32;;;;;;;3.07;1.97;;;;;;;32.16;52.76;100743.41;5019749;28;20180;-76
2022/06/13 07:25:57;;;;;;;2.87;1.83;;;;;;;32.16;52.98;100730.03;5006037;28;20196;-75
2022/06/13 07:28:23;;;;;;;4.30;2.17;;;;;;;32.15;52.96;100740.91;5021940;28;20548;-75
2022/06/13 07:30:48;;;;;;;3.70;2.10;;;;;;;32.23;53.27;100731.16;5007315;28;20820;-76
2022/06/13 07:33:14;;;;;;;4.15;1.88;;;;;;;32.37;53.28;100737.06;5006563;28;20303;-75
2022/06/13 07:35:39;;;;;;;4.90;2.40;;;;;;;32.13;53.00;100735.69;5008382;28;20192;-75
2022/06/13 07:38:17;;;;;;;3.57;2.40;;;;;;;31.80;52.79;100742.34;5011408;28;20280;-74
2022/06/13 07:40:47;;;;;;;4.07;2.37;;;;;;;31.47;53.07;100735.41;5024381;28;20301;-76
2022/06/13 07:43:27;;;;;;;4.03;1.80;;;;;;;31.37;53.56;100731.88;5004756;28;20275;-75
2022/06/13 07:45:53;;;;;;;3.10;1.90;;;;;;;31.37;54.14;100731.88;5008133;28;20199;-74
2022/06/13 07:48:19;;;;;;;3.97;2.10;;;;;;;31.32;53.82;100736.78;5008341;28;20544;-74
2022/06/13 07:50:44;;;;;;;3.50;1.93;;;;;;;31.40;54.13;100728.06;5004374;28;20199;-74
2022/06/13 07:53:10;;;;;;;3.40;1.87;;;;;;;31.37;54.00;100739.91;5006995;28;20569;-75
2022/06/13 07:55:36;;;;;;;4.93;2.30;;;;;;;31.04;53.46;100743.75;5002690;28;20285;-75
2022/06/13 07:58:02;;;;;;;4.53;2.10;;;;;;;30.71;54.34;100739.41;5021113;28;20198;-75
2022/06/13 08:00:35;;;;;;;4.33;2.57;;;;;;;30.46;54.11;100751.34;4998516;28;20187;-74
2022/06/13 08:03:01;;;;;;;3.93;2.40;;;;;;;30.01;54.13;100747.16;5005154;28;20279;-74
2022/06/13 08:05:28;;;;;;;4.77;2.43;;;;;;;29.78;54.71;100744.56;5006568;28;20184;-73
2022/06/13 08:07:53;;;;;;;3.20;1.80;;;;;;;29.77;55.27;100753.53;5007275;28;20192;-75
2022/06/13 08:10:19;;;;;;;3.60;2.27;;;;;;;29.75;55.54;100751.97;5021413;28;20206;-77
2022/06/13 08:12:45;;;;;;;6.13;2.50;;;;;;;29.72;55.88;100753.09;5005428;28;20222;-74
2022/06/13 08:15:13;;;;;;;5.90;2.70;;;;;;;29.58;55.90;100756.00;5004397;28;20208;-76
2022/06/13 08:17:38;;;;;;;4.57;2.60;;;;;;;29.27;55.71;100753.19;4996870;28;20656;-75
2022/06/13 08:20:04;;;;;;;3.67;2.33;;;;;;;29.11;56.09;100754.44;5005033;28;20227;-74
2022/06/13 08:22:30;;;;;;;5.87;2.30;;;;;;;28.92;56.71;100752.34;5006131;28;20552;-76
2022/06/13 08:24:56;;;;;;;2.50;2.00;;;;;;;28.85;57.44;100751.16;5003357;28;20185;-76
2022/06/13 08:27:21;;;;;;;3.33;2.50;;;;;;;28.66;57.17;100762.41;5013787;28;20195;-75
2022/06/13 08:29:46;;;;;;;3.83;2.50;;;;;;;28.35;57.50;100746.16;4997376;28;20207;-75
2022/06/13 08:32:13;;;;;;;4.40;2.27;;;;;;;27.87;58.37;100747.91;5005681;28;20742;-76
2022/06/13 08:34:39;;;;;;;2.77;2.10;;;;;;;27.71;59.72;100758.81;5006290;28;20671;-75
2022/06/13 08:37:04;;;;;;;4.53;2.97;;;;;;;27.68;58.83;100751.09;5006471;28;20250;-75
2022/06/13 08:39:30;;;;;;;3.63;2.10;;;;;;;27.77;58.81;100746.88;5003457;28;20188;-76
2022/06/13 08:42:00;;;;;;;4.00;2.03;;;;;;;27.73;59.49;100748.94;5009167;28;20683;-75
2022/06/13 08:44:52;;;;;;;4.50;2.47;;;;;;;27.22;61.37;100748.16;5000773;28;20188;-76
2022/06/13 08:47:33;;;;;;;2.93;2.33;;;;;;;27.10;63.09;100751.66;5010593;28;20240;-76
2022/06/13 08:50:01;;;;;;;4.17;2.70;;;;;;;27.04;62.84;100752.97;5006217;28;20199;-76
2022/06/13 08:52:37;;;;;;;3.37;2.20;;;;;;;26.99;63.02;100743.63;5001492;28;20293;-76
2022/06/13 08:55:15;;;;;;;2.50;1.70;;;;;;;26.95;63.00;100750.09;5009367;28;20307;-76
2022/06/13 08:57:50;;;;;;;2.27;1.87;;;;;;;26.90;62.84;100753.09;5018271;28;20199;-76
2022/06/13 09:00:20;;;;;;;3.30;2.30;;;;;;;26.84;62.29;100754.38;5020008;28;20187;-76
2022/06/13 09:03:18;;;;;;;4.40;2.50;;;;;;;26.58;60.15;100751.72;5021489;28;20212;-76
2022/06/13 09:05:59;;;;;;;4.40;2.23;;;;;;;26.39;61.41;100761.91;4985146;28;20230;-76
2022/06/13 09:08:45;;;;;;;2.40;2.17;;;;;;;26.57;62.68;100755.31;5001199;28;20237;-75
2022/06/13 09:11:17;;;;;;;4.17;2.03;;;;;;;26.84;63.12;100753.56;5001574;28;20740;-76
2022/06/13 09:14:13;;;;;;;4.23;2.17;;;;;;;27.01;63.60;100760.31;5008016;28;20200;-76
2022/06/13 09:16:42;;;;;;;6.10;2.23;;;;;;;27.00;63.25;100754.13;5022376;28;20219;-76
2022/06/13 09:19:27;;;;;;;2.43;2.10;;;;;;;27.00;63.19;100746.16;5005499;28;20184;-75
2022/06/13 09:22:01;;;;;;;3.47;2.10;;;;;;;26.99;63.02;100757.78;4996458;28;20208;-76
2022/06/13 09:24:44;;;;;;;4.43;2.17;;;;;;;26.91;63.16;100755.66;4994854;28;20554;-74
2022/06/13 09:27:19;;;;;;;2.57;1.70;;;;;;;26.97;63.14;100748.19;5005695;28;20236;-75
2022/06/13 09:29:51;;;;;;;3.27;2.10;;;;;;;27.10;62.20;100748.19;5000581;28;20183;-75
2022/06/13 09:32:17;;;;;;;2.33;1.70;;;;;;;27.39;62.56;100748.72;5018614;28;20222;-75
2022/06/13 09:34:48;;;;;;;4.50;2.00;;;;;;;27.68;60.82;100757.25;5020602;28;21025;-76
2022/06/13 09:37:23;;;;;;;4.40;2.47;;;;;;;27.85;57.70;100757.81;4992455;28;21067;-76
2022/06/13 09:39:49;;;;;;;3.33;2.33;;;;;;;27.63;58.38;100748.75;5006188;28;20267;-76
2022/06/13 09:42:44;;;;;;;3.23;2.07;;;;;;;27.49;59.44;100751.59;5005704;28;20200;-76
2022/06/13 09:45:25;;;;;;;4.20;2.00;;;;;;;27.54;60.26;100752.09;5004812;28;20188;-76
2022/06/13 09:48:11;;;;;;;2.30;2.00;;;;;;;27.60;60.75;100753.47;5010402;28;20203;-76
2022/06/13 09:50:48;;;;;;;2.93;1.97;;;;;;;27.57;60.45;100754.53;5018358;28;20195;-76
2022/06/13 09:53:25;;;;;;;3.93;2.30;;;;;;;27.47;59.97;100746.41;5003852;28;20690;-75
2022/06/13 09:56:00;;;;;;;3.63;2.20;;;;;;;27.36;59.46;100741.00;5006395;28;20195;-75
2022/06/13 09:58:47;;;;;;;4.87;2.27;;;;;;;27.28;59.93;100738.03;5017302;28;21095;-76
2022/06/13 10:01:43;;;;;;;4.03;2.40;;;;;;;27.23;61.25;100743.69;5018761;28;20208;-76
2022/06/13 10:04:21;;;;;;;5.40;2.97;;;;;;;27.29;61.52;100747.69;5004715;28;20200;-76
2022/06/13 10:06:56;;;;;;;6.27;2.50;;;;;;;27.31;62.33;100743.13;5005345;28;20184;-76
2022/06/13 10:09:34;;;;;;;4.30;2.33;;;;;;;27.48;62.76;100753.41;5000832;28;20176;-76
2022/06/13 10:12:11;;;;;;;2.60;1.90;;;;;;;27.68;61.97;100745.78;5001013;28;20578;-76
2022/06/13 10:14:45;;;;;;;2.83;1.70;;;;;;;27.92;60.85;100748.41;5002069;28;20200;-76
2022/06/13 10:17:29;;;;;;;3.80;2.10;;;;;;;28.18;58.67;100742.97;5002244;28;20301;-76
2022/06/13 10:20:03;;;;;;;5.63;2.37;;;;;;;28.22;58.47;100741.75;5004816;28;20199;-75
2022/06/13 10:22:43;;;;;;;3.93;2.40;;;;;;;28.23;58.25;100753.25;5002243;28;20214;-75
2022/06/13 10:25:14;;;;;;;2.40;1.77;;;;;;;28.10;59.41;100740.88;5004497;28;20230;-75
2022/06/13 10:27:58;;;;;;;2.47;2.10;;;;;;;27.99;59.11;100749.63;5014025;28;20551;-76
2022/06/13 10:30:42;;;;;;;2.03;1.83;;;;;;;27.99;58.73;100759.41;5013114;28;20184;-75
2022/06/13 10:33:29;;;;;;;4.67;2.60;;;;;;;28.02;59.04;100753.88;5005050;28;20602;-77
2022/06/13 10:36:05;;;;;;;4.70;2.03;;;;;;;28.14;58.11;100755.63;5006065;28;20188;-75
2022/06/13 10:39:05;;;;;;;1.70;1.50;;;;;;;28.08;54.41;100756.09;5019705;28;20233;-76
2022/06/13 10:41:36;;;;;;;2.67;1.60;;;;;;;27.86;53.85;100748.00;5014082;28;20277;-75
2022/06/13 10:44:03;;;;;;;2.30;1.57;;;;;;;27.61;53.70;100748.03;5020030;28;20188;-77
2022/06/13 10:46:29;;;;;;;1.87;1.50;;;;;;;27.36;54.88;100747.13;4997377;28;20188;-77
2022/06/13 10:49:21;;;;;;;2.23;1.57;;;;;;;27.35;55.94;100744.59;5017078;28;20188;-76
2022/06/13 10:51:47;;;;;;;2.10;1.60;;;;;;;27.45;57.47;100745.66;4999163;28;20205;-76
2022/06/13 10:54:19;;;;;;;2.53;1.30;;;;;;;27.57;56.71;100743.03;5019723;28;20269;-76
2022/06/13 10:56:56;;;;;;;2.57;1.60;;;;;;;27.63;56.13;100745.25;5019208;28;20192;-76
2022/06/13 10:59:25;;;;;;;1.90;1.50;;;;;;;27.73;55.01;100751.59;5020018;28;20184;-77
2022/06/13 11:02:03;;;;;;;1.63;1.20;;;;;;;27.67;55.08;100742.25;5001965;28;20220;-75
2022/06/13 11:04:31;;;;;;;1.50;1.20;;;;;;;27.58;53.47;100739.44;5016263;28;20176;-77
2022/06/13 11:07:02;;;;;;;2.23;1.50;;;;;;;27.38;50.49;100737.25;5004406;28;20200;-76
2022/06/13 11:09:41;;;;;;;2.73;1.30;;;;;;;27.28;51.45;100738.03;5020706;28;20176;-76
2022/06/13 11:12:26;;;;;;;2.90;1.40;;;;;;;27.27;51.99;100746.97;5006827;28;20226;-77
2022/06/13 11:23:19;;;;;;;2.20;1.30;;;;;;;26.17;52.64;100743.00;5008929;28;20765;-76
2022/06/13 11:25:55;;;;;;;1.87;1.43;;;;;;;26.30;52.94;100735.06;5007929;28;20188;-77
2022/06/13 11:28:24;;;;;;;1.47;1.30;;;;;;;26.49;53.57;100736.41;5006077;28;20183;-74
2022/06/13 11:31:14;;;;;;;1.80;1.10;;;;;;;26.73;53.79;100733.03;5008879;28;20176;-76
2022/06/13 11:33:40;;;;;;;2.23;1.60;;;;;;;26.82;50.63;100731.56;5004326;28;20243;-76
2022/06/13 11:36:14;;;;;;;3.37;1.30;;;;;;;26.70;51.10;100728.75;5007266;28;20201;-76
2022/06/13 11:39:03;;;;;;;2.03;1.23;;;;;;;26.84;52.56;100732.31;5008180;28;20191;-76
2022/06/13 11:41:41;;;;;;;2.13;1.30;;;;;;;27.03;53.35;100724.72;5017391;28;20338;-77
2022/06/13 11:44:10;;;;;;;2.60;1.53;;;;;;;27.21;52.98;100721.69;5023215;28;20180;-76
2022/06/13 11:46:44;;;;;;;1.80;1.37;;;;;;;27.36;51.78;100717.91;5013776;28;20192;-76
2022/06/13 11:49:16;;;;;;;2.23;1.43;;;;;;;27.40;51.58;100718.53;5007077;28;20683;-77
2022/06/13 11:51:47;;;;;;;1.83;1.13;;;;;;;27.51;52.09;100725.75;5003503;28;20212;-75
2022/06/13 11:54:28;;;;;;;1.90;1.37;;;;;;;27.63;52.37;100726.66;5016686;28;20574;-76
2022/06/13 11:57:35;;;;;;;2.60;1.70;;;;;;;27.49;50.91;100725.88;5006181;28;20616;-76
2022/06/13 12:00:07;;;;;;;2.00;1.57;;;;;;;27.25;51.63;100723.16;4945441;29;20199;-76
2022/06/13 12:02:42;;;;;;;2.20;1.40;;;;;;;27.29;51.76;100711.38;4994214;28;20508;-76
2022/06/13 12:05:24;;;;;;;1.63;1.30;;;;;;;27.47;52.98;100722.47;5003137;28;20190;-76
2022/06/13 12:07:53;;;;;;;1.70;1.50;;;;;;;27.56;53.67;100714.78;5015417;28;20196;-75
2022/06/13 12:10:23;;;;;;;1.57;1.37;;;;;;;27.72;53.40;100704.69;4996609;28;20176;-76
2022/06/13 12:12:48;;;;;;;1.90;1.60;;;;;;;27.91;53.00;100717.44;5007383;28;20341;-75